Time;durP1;ratioP1;P1;durP2;ratioP2;P2;SDS_P1;SDS_P2;PMS_P1;PMS_P2;Temp;Humidity;BMP_temperature;BMP_pressure;BME280_temperature;BME280_humidity;BME280_pressure;Samples;Min_cycle;Max_cycle;Signal;HPM_P1;HPM_P2
2022/02/21 00:00:36;;;;;;;9.40;3.10;;;;;;;5.60;73.93;97224.58;106097;1280;22575;-75
2022/02/21 00:03:11;;;;;;;8.30;2.50;;;;;;;5.61;73.90;97214.75;105877;1280;137007;-75
2022/02/21 00:05:38;;;;;;;6.60;2.50;;;;;;;5.60;73.81;97198.27;105818;1280;22577;-74
2022/02/21 00:08:05;;;;;;;4.90;2.10;;;;;;;5.61;73.76;97200.95;105923;1280;23141;-74
2022/02/21 00:10:32;;;;;;;5.40;2.00;;;;;;;5.61;73.63;97192.61;105928;1280;137372;-75
2022/02/21 00:12:59;;;;;;;5.50;2.00;;;;;;;5.63;73.58;97188.64;105828;1280;26644;-74
2022/02/21 00:15:40;;;;;;;6.80;2.10;;;;;;;5.68;73.49;97183.81;105808;1280;137448;-74
2022/02/21 00:18:07;;;;;;;4.50;1.80;;;;;;;5.73;73.42;97178.38;105864;1281;30179;-74
2022/02/21 00:20:36;;;;;;;3.20;1.50;;;;;;;5.79;73.23;97175.57;106128;1281;22632;-74
2022/02/21 00:23:03;;;;;;;1.90;1.00;;;;;;;5.85;73.16;97170.48;105834;1280;136753;-75
2022/02/21 00:25:30;;;;;;;1.60;0.90;;;;;;;5.91;72.85;97163.60;105793;1280;24294;-74
2022/02/21 00:27:57;;;;;;;2.00;1.20;;;;;;;5.98;72.65;97151.28;105709;1280;137099;-75
2022/02/21 00:30:24;;;;;;;3.20;1.10;;;;;;;6.04;72.60;97149.33;106025;1280;22615;-74
2022/02/21 00:32:52;;;;;;;2.60;1.20;;;;;;;6.10;72.39;97147.47;105762;1281;25523;-75
2022/02/21 00:35:19;;;;;;;1.50;0.80;;;;;;;6.16;72.29;97136.64;105847;1280;137370;-75
2022/02/21 00:37:47;;;;;;;2.10;0.80;;;;;;;6.23;71.83;97131.55;105888;1281;25488;-75
2022/02/21 00:40:13;;;;;;;2.10;0.90;;;;;;;6.31;71.99;97128.06;105615;1280;137140;-75
2022/02/21 00:42:41;;;;;;;3.20;1.20;;;;;;;6.37;71.46;97121.66;105714;1283;22547;-75
2022/02/21 00:45:09;;;;;;;2.80;1.10;;;;;;;6.41;71.49;97117.27;105728;1281;137194;-74
2022/02/21 00:47:39;;;;;;;2.70;1.00;;;;;;;6.44;71.35;97110.98;106055;1277;24271;-75
2022/02/21 00:50:09;;;;;;;0.80;0.80;;;;;;;6.44;71.36;97101.73;106008;1280;22830;-75
2022/02/21 00:52:36;;;;;;;;;;;;;;;6.47;70.91;97100.75;105976;1277;138229;-75
2022/02/21 00:55:04;;;;;;;3.70;1.80;;;;;;;6.50;70.90;97090.52;106102;1277;22538;-75
2022/02/21 00:57:31;;;;;;;2.30;1.30;;;;;;;6.53;70.79;97089.09;105879;1277;137837;-75
2022/02/21 00:59:58;;;;;;;2.60;0.80;;;;;;;6.57;70.51;97082.16;105890;1280;22554;-75
2022/02/21 01:02:25;;;;;;;3.70;1.10;;;;;;;6.60;70.48;97082.56;105963;1280;24330;-75
2022/02/21 01:04:51;;;;;;;3.10;1.10;;;;;;;6.62;70.29;97077.66;105702;1280;138055;-75
2022/02/21 01:07:18;;;;;;;4.00;1.50;;;;;;;6.64;69.91;97075.74;105926;1281;22534;-74
2022/02/21 01:09:45;;;;;;;4.10;1.30;;;;;;;6.67;69.87;97072.47;106050;1280;137403;-74
2022/02/21 01:12:14;;;;;;;1.90;1.10;;;;;;;6.68;69.67;97064.15;105962;1280;22629;-74
2022/02/21 01:14:41;;;;;;;3.70;1.30;;;;;;;6.68;69.71;97057.44;105814;1277;25307;-74
2022/02/21 01:17:08;;;;;;;2.30;1.00;;;;;;;6.68;69.40;97052.59;105902;1280;137247;-74
2022/02/21 01:19:51;;;;;;;2.10;0.80;;;;;;;6.67;69.20;97047.32;105981;1280;25469;-74
2022/02/21 01:22:18;;;;;;;1.40;1.00;;;;;;;6.69;68.96;97045.97;105808;1280;138015;-75
2022/02/21 01:24:45;;;;;;;1.70;0.90;;;;;;;6.71;69.02;97035.94;105761;1281;23611;-75
2022/02/21 01:27:16;;;;;;;3.40;1.20;;;;;;;6.74;68.76;97029.52;105803;1280;138166;-74
2022/02/21 01:29:43;;;;;;;1.90;0.90;;;;;;;6.77;68.57;97026.81;105783;1280;23974;-74
2022/02/21 01:32:10;;;;;;;2.30;1.00;;;;;;;6.81;68.40;97012.29;106072;1280;22545;-74
2022/02/21 01:34:37;;;;;;;1.40;0.90;;;;;;;6.83;68.15;97003.11;105802;1280;137292;-74
2022/02/21 01:37:05;;;;;;;1.80;0.50;;;;;;;6.85;68.09;97002.41;105852;1280;22594;-76
2022/02/21 01:39:33;;;;;;;1.60;0.90;;;;;;;6.87;68.17;96999.52;105776;1280;138041;-74
2022/02/21 01:42:03;;;;;;;1.60;0.70;;;;;;;6.88;67.79;96994.43;105967;1280;22631;-74
2022/02/21 01:44:42;;;;;;;2.80;1.10;;;;;;;6.89;67.91;96991.20;105918;1280;24282;-74
2022/02/21 01:47:15;;;;;;;1.10;0.70;;;;;;;6.90;67.56;96980.80;105635;1281;137061;-74
2022/02/21 01:49:42;;;;;;;1.30;0.80;;;;;;;6.90;67.36;96975.72;105987;1280;22613;-74
2022/02/21 01:52:10;;;;;;;1.30;0.80;;;;;;;6.91;67.58;96965.73;105805;1280;137017;-74
2022/02/21 01:54:38;;;;;;;1.20;0.80;;;;;;;6.92;67.07;96961.39;105956;1280;22579;-74
2022/02/21 01:57:06;;;;;;;1.40;0.80;;;;;;;6.93;66.86;96958.55;106023;1280;137219;-75
2022/02/21 01:59:34;;;;;;;1.80;0.70;;;;;;;6.94;67.01;96954.92;105779;1281;25397;-74
2022/02/21 02:02:01;;;;;;;1.60;1.20;;;;;;;6.96;66.77;96950.77;105850;1281;25288;-75
2022/02/21 02:04:28;;;;;;;1.20;0.60;;;;;;;6.98;66.44;96947.10;106021;1280;137177;-75
2022/02/21 02:06:55;;;;;;;1.50;0.60;;;;;;;7.00;66.38;96944.58;106085;1280;22731;-75
2022/02/21 02:09:22;;;;;;;2.60;1.10;;;;;;;7.02;66.12;96936.89;105735;1280;137578;-75
2022/02/21 02:11:51;;;;;;;1.00;0.70;;;;;;;7.06;66.27;96931.02;105980;1280;26492;-74
2022/02/21 02:14:38;;;;;;;1.20;0.60;;;;;;;7.09;66.09;96928.77;105875;1281;22585;-74
2022/02/21 02:17:11;;;;;;;2.60;0.90;;;;;;;7.12;66.03;96919.80;105831;1281;137732;-74
2022/02/21 02:19:45;;;;;;;1.70;0.80;;;;;;;7.14;65.92;96919.06;105918;1280;25323;-74
2022/02/21 02:22:31;;;;;;;1.70;0.90;;;;;;;7.16;65.68;96913.55;105781;1280;137437;-75
2022/02/21 02:24:58;;;;;;;0.70;0.60;;;;;;;7.17;65.28;96906.78;105893;1280;26002;-75
2022/02/21 02:27:28;;;;;;;1.70;0.60;;;;;;;7.16;65.52;96907.48;105784;1280;137830;-75
2022/02/21 02:29:58;;;;;;;2.50;0.80;;;;;;;7.16;65.36;96903.97;105849;1280;24346;-75
2022/02/21 02:32:26;;;;;;;1.90;0.90;;;;;;;7.15;65.61;96897.14;105953;1280;22557;-75
2022/02/21 02:34:53;;;;;;;2.40;0.90;;;;;;;7.13;65.52;96893.39;105540;1283;137483;-74
2022/02/21 02:37:22;;;;;;;1.90;1.20;;;;;;;7.12;65.32;96894.90;105750;1281;22657;-75
2022/02/21 02:39:50;;;;;;;0.90;0.80;;;;;;;7.12;65.34;96902.31;105233;1284;137184;-75
2022/02/21 02:42:17;;;;;;;1.00;0.80;;;;;;;7.13;65.01;96897.84;105825;1281;24212;-75
2022/02/21 02:44:44;;;;;;;2.60;1.40;;;;;;;7.14;65.30;96894.80;105863;1281;22576;-74
2022/02/21 02:47:13;;;;;;;0.80;0.70;;;;;;;7.15;65.25;96895.36;105838;1281;137065;-75
2022/02/21 02:49:41;;;;;;;1.80;0.90;;;;;;;7.16;65.16;96891.15;105839;1280;22547;-75
2022/02/21 02:52:09;;;;;;;2.10;1.30;;;;;;;7.19;65.54;96885.64;105837;1280;137132;-75
2022/02/21 02:54:36;;;;;;;1.00;0.70;;;;;;;7.20;66.08;96880.77;105744;1280;26493;-75
2022/02/21 02:57:17;;;;;;;1.70;0.70;;;;;;;7.21;66.21;96874.27;105855;1280;137291;-77
2022/02/21 02:59:44;;;;;;;1.10;0.70;;;;;;;7.23;66.58;96870.98;106006;1280;22557;-77
2022/02/21 03:02:11;;;;;;;1.50;0.60;;;;;;;7.25;66.81;96873.88;105879;1280;25317;-75
2022/02/21 03:04:38;;;;;;;2.30;0.80;;;;;;;7.27;67.15;96868.35;105853;1281;139559;-76
2022/02/21 03:07:05;;;;;;;1.70;0.70;;;;;;;7.27;67.48;96867.42;105805;1281;22571;-77
2022/02/21 03:09:33;;;;;;;1.20;0.60;;;;;;;7.25;67.65;96866.38;105651;1280;137325;-74
2022/02/21 03:12:03;;;;;;;1.90;0.90;;;;;;;7.22;68.01;96862.69;105661;1283;24250;-74
2022/02/21 03:14:30;;;;;;;1.30;0.90;;;;;;;7.17;68.56;96859.15;105648;1281;24428;-75
2022/02/21 03:16:57;;;;;;;1.80;0.70;;;;;;;7.12;68.90;96857.71;105523;1281;138148;-73
2022/02/21 03:19:25;;;;;;;1.90;0.70;;;;;;;7.07;69.00;96856.11;105535;1281;22550;-73
2022/02/21 03:21:54;;;;;;;1.80;0.70;;;;;;;7.03;69.45;96857.71;105755;1281;138333;-76
2022/02/21 03:24:21;;;;;;;0.80;0.70;;;;;;;7.02;70.05;96858.85;105848;1281;25299;-75
2022/02/21 03:26:48;;;;;;;2.60;1.00;;;;;;;6.99;70.43;96860.02;105741;1281;22553;-74
2022/02/21 03:29:15;;;;;;;2.40;0.80;;;;;;;6.97;70.86;96857.95;105742;1281;137396;-75
2022/02/21 03:31:42;;;;;;;2.30;0.70;;;;;;;6.94;70.83;96859.61;105779;1281;24236;-74
2022/02/21 03:34:09;;;;;;;1.50;0.60;;;;;;;6.90;71.25;96858.50;105517;1284;137662;-74
2022/02/21 03:36:36;;;;;;;1.00;0.70;;;;;;;6.86;71.64;96849.33;105903;1281;22612;-73
2022/02/21 03:39:03;;;;;;;2.50;0.70;;;;;;;6.82;71.75;96838.27;105684;1280;137976;-74
2022/02/21 03:41:30;;;;;;;1.50;0.80;;;;;;;6.80;72.19;96834.79;105863;1280;24316;-74
2022/02/21 03:43:58;;;;;;;2.50;1.00;;;;;;;6.79;72.62;96830.17;105884;1280;22679;-74
2022/02/21 03:46:25;;;;;;;0.90;0.60;;;;;;;6.77;72.90;96824.97;105722;1278;137072;-74
2022/02/21 03:48:52;;;;;;;1.70;0.70;;;;;;;6.76;73.21;96816.63;105882;1281;24240;-74
2022/02/21 03:51:19;;;;;;;1.50;0.60;;;;;;;6.74;73.29;96816.19;105895;1281;137248;-74
2022/02/21 03:53:46;;;;;;;1.60;0.90;;;;;;;6.72;73.46;96811.85;105738;1283;22561;-74
2022/02/21 03:56:13;;;;;;;1.40;0.70;;;;;;;6.69;73.79;96808.86;105870;1281;23970;-74
2022/02/21 03:58:43;;;;;;;2.30;0.80;;;;;;;6.65;74.06;96799.42;105789;1281;138385;-74
2022/02/21 04:01:10;;;;;;;0.60;0.50;;;;;;;6.65;74.46;96789.46;105773;1280;24264;-74
2022/02/21 04:03:37;;;;;;;1.40;0.60;;;;;;;6.62;74.69;96786.36;105925;1280;137820;-74
2022/02/21 04:06:04;;;;;;;1.60;0.90;;;;;;;6.59;74.89;96781.09;105827;1281;22534;-74
2022/02/21 04:08:31;;;;;;;2.10;0.90;;;;;;;6.56;75.14;96778.10;105896;1281;25337;-74
2022/02/21 04:10:58;;;;;;;1.70;0.90;;;;;;;6.53;75.44;96777.21;105692;1281;136913;-74
2022/02/21 04:13:25;;;;;;;2.10;1.40;;;;;;;6.50;75.56;96778.92;105709;1281;25300;-74
2022/02/21 04:15:52;;;;;;;0.60;0.50;;;;;;;6.50;76.20;96773.25;105655;1281;138144;-75
2022/02/21 04:18:19;;;;;;;2.40;0.60;;;;;;;6.49;76.64;96767.50;106068;1281;22902;-74
2022/02/21 04:20:46;;;;;;;0.90;0.60;;;;;;;6.44;77.15;96761.14;106032;1278;24402;-74
2022/02/21 04:23:13;;;;;;;1.10;0.60;;;;;;;6.40;77.19;96758.73;105826;1278;137122;-75
2022/02/21 04:25:40;;;;;;;0.80;0.70;;;;;;;6.37;77.74;96755.69;105750;1281;22607;-75
2022/02/21 04:28:07;;;;;;;1.80;0.70;;;;;;;6.35;77.81;96742.33;105815;1277;137930;-74
2022/02/21 04:30:34;;;;;;;0.80;0.80;;;;;;;6.34;77.95;96733.51;105993;1281;22556;-74
2022/02/21 04:33:01;;;;;;;1.10;0.70;;;;;;;6.33;78.19;96725.66;105793;1281;24233;-73
2022/02/21 04:35:28;;;;;;;1.20;1.10;;;;;;;6.30;78.17;96716.06;105587;1281;137551;-74
2022/02/21 04:37:56;;;;;;;1.00;0.60;;;;;;;6.26;78.41;96717.34;105793;1281;22548;-74
2022/02/21 04:40:25;;;;;;;1.50;0.90;;;;;;;6.25;78.74;96713.81;105841;1281;137897;-74
2022/02/21 04:42:53;;;;;;;0.90;0.80;;;;;;;6.23;78.72;96693.42;105816;1280;23956;-76
2022/02/21 04:45:21;;;;;;;2.60;1.00;;;;;;;6.23;78.65;96687.91;106029;1281;138343;-74
2022/02/21 04:47:48;;;;;;;2.70;1.20;;;;;;;6.24;78.66;96688.95;105928;1280;22856;-75
2022/02/21 04:50:16;;;;;;;1.70;0.90;;;;;;;6.23;78.42;96680.23;105874;1281;24832;-75
2022/02/21 04:52:43;;;;;;;1.50;0.90;;;;;;;6.22;78.40;96681.69;105824;1281;137747;-75
2022/02/21 04:55:12;;;;;;;2.00;0.80;;;;;;;6.21;78.30;96674.33;105845;1281;22550;-75
2022/02/21 04:57:40;;;;;;;1.70;0.90;;;;;;;6.21;78.08;96665.84;105763;1280;138281;-75
2022/02/21 05:00:13;;;;;;;1.60;0.80;;;;;;;6.21;77.94;96654.60;105918;1281;23993;-75
2022/02/21 05:02:40;;;;;;;1.50;0.90;;;;;;;6.22;78.01;96644.81;105849;1281;24266;-74
2022/02/21 05:05:12;;;;;;;0.70;0.70;;;;;;;6.22;77.96;96641.68;105679;1281;137515;-75
2022/02/21 05:07:43;;;;;;;1.30;0.90;;;;;;;6.21;77.84;96634.11;105784;1282;24266;-75
2022/02/21 05:10:10;;;;;;;1.20;0.80;;;;;;;6.20;77.85;96621.08;106209;1281;137826;-75
2022/02/21 05:12:37;;;;;;;2.30;1.10;;;;;;;6.21;77.48;96621.25;105976;1281;25439;-75
2022/02/21 05:15:18;;;;;;;1.70;0.90;;;;;;;6.22;77.41;96612.28;105688;1281;137545;-75
2022/02/21 05:17:45;;;;;;;3.00;1.00;;;;;;;6.23;77.28;96600.60;105943;1280;22557;-75
2022/02/21 05:20:13;;;;;;;1.20;0.90;;;;;;;6.23;77.04;96593.42;105735;1281;22728;-75
2022/02/21 05:22:40;;;;;;;1.80;0.90;;;;;;;6.21;76.89;96593.30;105874;1281;137405;-75
2022/02/21 05:25:08;;;;;;;1.60;1.20;;;;;;;6.21;76.79;96582.27;106087;1281;22634;-75
2022/02/21 05:27:37;;;;;;;3.60;1.50;;;;;;;6.20;76.70;96578.64;105771;1280;139704;-75
2022/02/21 05:30:06;;;;;;;2.00;1.30;;;;;;;6.22;76.30;96573.68;105979;1280;22679;-74
2022/02/21 05:32:33;;;;;;;2.90;1.00;;;;;;;6.25;76.28;96567.79;105953;1281;22671;-75
2022/02/21 05:35:01;;;;;;;1.70;1.10;;;;;;;6.26;76.05;96566.30;105663;1281;137330;-75
2022/02/21 05:37:28;;;;;;;1.60;1.10;;;;;;;6.29;75.81;96566.36;105823;1281;24234;-75
2022/02/21 05:40:11;;;;;;;2.20;1.00;;;;;;;6.30;75.73;96567.55;105728;1280;137399;-75
2022/02/21 05:42:38;;;;;;;2.00;1.00;;;;;;;6.30;75.58;96569.66;106160;1280;22688;-75
2022/02/21 05:45:05;;;;;;;2.70;1.10;;;;;;;6.33;75.52;96579.77;105793;1280;22573;-75
2022/02/21 05:47:32;;;;;;;2.20;1.40;;;;;;;6.37;75.35;96582.56;105909;1280;137427;-75
2022/02/21 05:49:59;;;;;;;3.70;1.50;;;;;;;6.40;75.31;96574.95;105857;1280;22653;-75
2022/02/21 05:52:27;;;;;;;4.20;1.40;;;;;;;6.43;75.36;96575.01;105810;1280;137188;-74
2022/02/21 05:54:54;;;;;;;3.00;1.90;;;;;;;6.45;75.43;96578.10;105824;1279;22899;-75
2022/02/21 05:57:21;;;;;;;3.60;1.70;;;;;;;6.46;75.44;96578.27;105831;1280;137057;-75
2022/02/21 05:59:48;;;;;;;4.20;1.70;;;;;;;6.46;75.41;96578.21;105858;1280;23101;-75
2022/02/21 06:02:15;;;;;;;3.20;1.30;;;;;;;6.47;75.51;96579.73;106066;1280;23613;-74
2022/02/21 06:04:42;;;;;;;3.60;2.00;;;;;;;6.49;75.51;96579.58;105878;1280;137505;-75
2022/02/21 06:07:09;;;;;;;2.50;1.30;;;;;;;6.52;75.51;96579.74;105944;1280;24306;-74
2022/02/21 06:09:36;;;;;;;1.80;1.20;;;;;;;6.57;75.45;96581.66;105913;1280;138637;-74
2022/02/21 06:12:04;;;;;;;2.80;1.30;;;;;;;6.60;75.90;96587.95;105960;1280;25445;-75
2022/02/21 06:14:32;;;;;;;4.20;1.30;;;;;;;6.62;75.77;96580.54;106150;1280;24365;-75
2022/02/21 06:16:59;;;;;;;1.20;1.10;;;;;;;6.65;75.97;96579.14;106037;1280;137748;-74
2022/02/21 06:19:27;;;;;;;2.50;1.70;;;;;;;6.71;75.74;96579.80;105917;1281;22811;-75
2022/02/21 06:21:55;;;;;;;0.80;0.70;;;;;;;6.77;75.73;96573.33;105807;1281;137779;-74
2022/02/21 06:24:24;;;;;;;1.30;1.00;;;;;;;6.82;75.67;96569.61;105999;1280;22713;-74
2022/02/21 06:26:51;;;;;;;1.40;0.80;;;;;;;6.88;75.45;96564.46;105966;1280;24222;-74
2022/02/21 06:29:32;;;;;;;3.40;1.10;;;;;;;6.95;75.12;96559.08;106047;1280;137244;-74
2022/02/21 06:31:59;;;;;;;1.80;1.00;;;;;;;7.03;75.25;96562.07;106015;1280;22567;-74
2022/02/21 06:34:40;;;;;;;0.80;0.80;;;;;;;7.11;75.13;96563.26;105700;1280;137844;-74
2022/02/21 06:37:07;;;;;;;2.50;1.10;;;;;;;7.17;74.77;96564.56;105759;1281;22819;-74
2022/02/21 06:39:35;;;;;;;2.00;1.10;;;;;;;7.21;74.55;96565.11;105858;1280;138092;-75
2022/02/21 06:42:02;;;;;;;1.90;1.40;;;;;;;7.26;74.44;96561.76;106488;1280;22573;-75
2022/02/21 06:44:29;;;;;;;1.80;1.00;;;;;;;7.28;74.39;96568.24;106343;1280;22547;-75
2022/02/21 06:46:56;;;;;;;2.10;0.70;;;;;;;7.32;74.49;96572.20;106167;1280;138138;-74
2022/02/21 06:49:24;;;;;;;1.50;1.40;;;;;;;7.36;74.41;96572.54;106171;1280;22545;-75
2022/02/21 06:51:51;;;;;;;2.10;1.20;;;;;;;7.40;74.21;96572.26;106010;1280;138015;-74
2022/02/21 06:54:19;;;;;;;2.00;1.10;;;;;;;7.42;74.45;96576.86;106023;1280;22548;-74
2022/02/21 06:56:47;;;;;;;4.60;1.40;;;;;;;7.43;74.62;96582.05;105997;1280;22606;-74
2022/02/21 06:59:14;;;;;;;3.00;1.40;;;;;;;7.40;74.92;96579.67;106024;1280;137063;-75
2022/02/21 07:01:41;;;;;;;1.30;1.10;;;;;;;7.39;75.11;96582.59;106019;1279;23977;-74
2022/02/21 07:04:22;;;;;;;3.60;1.90;;;;;;;7.37;75.40;96577.19;105885;1280;137533;-74
2022/02/21 07:06:50;;;;;;;2.60;1.30;;;;;;;7.36;75.67;96583.03;106107;1280;23720;-74
2022/02/21 07:09:17;;;;;;;2.30;1.40;;;;;;;7.32;75.69;96584.02;106241;1280;137195;-74
2022/02/21 07:11:45;;;;;;;2.80;1.50;;;;;;;7.29;75.87;96588.45;105808;1280;22547;-75
2022/02/21 07:14:27;;;;;;;2.60;1.70;;;;;;;7.24;76.15;96586.39;105993;1280;25277;-74
2022/02/21 07:16:55;;;;;;;3.10;1.50;;;;;;;7.20;76.33;96590.50;105947;1280;137835;-74
2022/02/21 07:19:22;;;;;;;2.10;1.50;;;;;;;7.18;76.67;96589.14;106260;1280;23517;-75
2022/02/21 07:22:03;;;;;;;2.50;1.50;;;;;;;7.14;77.12;96591.73;105807;1280;137872;-74
2022/02/21 07:24:37;;;;;;;2.20;1.30;;;;;;;7.10;77.02;96592.17;106639;1280;22617;-74
2022/02/21 07:29:36;;;;;;;2.30;1.40;;;;;;;7.05;77.25;96592.81;103651;1304;545617;-76
2022/02/21 07:32:17;;;;;;;5.20;1.90;;;;;;;7.01;77.29;96598.38;105039;1290;22582;-74
2022/02/21 07:34:45;;;;;;;3.80;1.60;;;;;;;6.99;77.40;96592.20;104859;1290;136241;-77
2022/02/21 07:37:12;;;;;;;3.30;1.40;;;;;;;6.95;77.45;96596.64;105180;1290;26859;-74
2022/02/21 07:39:40;;;;;;;4.50;1.50;;;;;;;6.92;77.63;96588.56;104509;1290;136679;-74
2022/02/21 07:42:08;;;;;;;3.00;1.40;;;;;;;6.89;77.61;96587.64;104836;1287;197821;-74
2022/02/21 07:44:35;;;;;;;3.10;1.40;;;;;;;6.86;77.50;96583.80;105180;1287;22786;-74
2022/02/21 07:47:03;;;;;;;4.30;1.60;;;;;;;6.85;77.51;96585.69;105489;1287;136565;-74
2022/02/21 07:49:30;;;;;;;3.10;1.70;;;;;;;6.83;77.86;96585.57;105390;1287;22573;-75
2022/02/21 07:51:58;;;;;;;3.50;1.50;;;;;;;6.81;78.09;96581.18;105197;1287;136714;-74
2022/02/21 07:54:25;;;;;;;1.90;1.40;;;;;;;6.82;78.07;96582.05;105149;1287;25271;-74
2022/02/21 07:56:52;;;;;;;2.50;1.60;;;;;;;6.82;78.35;96577.35;105774;1280;22702;-74
2022/02/21 07:59:19;;;;;;;2.10;1.40;;;;;;;6.84;78.23;96567.67;105608;1281;137305;-74
2022/02/21 08:01:47;;;;;;;3.30;1.50;;;;;;;6.89;78.31;96560.30;105789;1280;25518;-74
2022/02/21 08:04:28;;;;;;;2.00;1.40;;;;;;;6.91;78.35;96560.15;105771;1280;137094;-74
2022/02/21 08:06:55;;;;;;;1.50;1.30;;;;;;;6.92;78.20;96556.46;106041;1280;22569;-74
2022/02/21 08:09:23;;;;;;;2.10;1.40;;;;;;;6.93;78.41;96549.34;105747;1280;138014;-74
2022/02/21 08:11:50;;;;;;;4.20;1.40;;;;;;;6.97;78.44;96553.02;105799;1280;25345;-75
2022/02/21 08:14:17;;;;;;;2.00;1.20;;;;;;;7.02;78.72;96551.30;105801;1280;22566;-75
2022/02/21 08:16:44;;;;;;;1.60;1.20;;;;;;;7.07;78.62;96545.61;105689;1280;136736;-75
2022/02/21 08:19:26;;;;;;;4.00;1.40;;;;;;;7.12;78.55;96546.53;105732;1280;25328;-75
2022/02/21 08:22:08;;;;;;;2.70;1.00;;;;;;;7.16;78.59;96546.38;105644;1280;136765;-75
2022/02/21 08:24:49;;;;;;;1.50;1.20;;;;;;;7.20;78.46;96546.21;105813;1280;24382;-75
2022/02/21 08:27:17;;;;;;;2.10;1.20;;;;;;;7.26;78.33;96548.64;105708;1280;137194;-74
2022/02/21 08:29:44;;;;;;;2.20;1.40;;;;;;;7.32;78.48;96545.23;105873;1280;22557;-75
2022/02/21 08:32:25;;;;;;;2.30;1.40;;;;;;;7.39;78.37;96531.21;106296;1280;24345;-74
2022/02/21 08:34:52;;;;;;;2.20;1.10;;;;;;;7.44;77.95;96527.41;105715;1280;136588;-74
2022/02/21 08:37:20;;;;;;;1.20;0.90;;;;;;;7.51;77.79;96516.30;105729;1281;25410;-75
2022/02/21 08:39:47;;;;;;;1.60;0.80;;;;;;;7.57;77.12;96520.40;105763;1280;137672;-75
2022/02/21 08:42:14;;;;;;;0.80;0.70;;;;;;;7.65;76.61;96518.72;105826;1280;25423;-75
2022/02/21 08:44:41;;;;;;;2.70;1.70;;;;;;;7.72;76.71;96515.13;105942;1280;22707;-75
2022/02/21 08:47:09;;;;;;;1.20;1.10;;;;;;;7.78;76.22;96510.39;106136;1280;136561;-75
2022/02/21 08:49:36;;;;;;;4.90;2.20;;;;;;;7.83;75.81;96500.08;105897;1280;24086;-75
2022/02/21 08:52:28;;;;;;;2.70;1.80;;;;;;;7.88;75.47;96492.85;105785;1280;136801;-75
2022/02/21 08:54:55;;;;;;;1.20;0.90;;;;;;;7.91;74.83;96492.79;105874;1280;24826;-75
2022/02/21 08:57:23;;;;;;;1.10;0.80;;;;;;;7.96;74.99;96490.34;105908;1280;137858;-75
2022/02/21 08:59:50;;;;;;;2.40;0.90;;;;;;;8.02;74.56;96488.09;106071;1280;22578;-75
2022/02/21 09:02:19;;;;;;;3.20;1.60;;;;;;;8.07;73.99;96482.70;106033;1279;25653;-75
2022/02/21 09:04:46;;;;;;;2.00;1.10;;;;;;;8.11;73.71;96483.01;106029;1280;136765;-75
2022/02/21 09:07:13;;;;;;;1.30;0.90;;;;;;;8.14;73.43;96478.62;105873;1280;24306;-75
2022/02/21 09:09:40;;;;;;;2.00;1.10;;;;;;;8.16;73.37;96471.92;105742;1280;136997;-75
2022/02/21 09:12:08;;;;;;;1.60;1.00;;;;;;;8.20;73.50;96471.64;105749;1280;136937;-75
2022/02/21 09:14:35;;;;;;;2.30;0.80;;;;;;;8.22;72.63;96467.78;106074;1280;24418;-75
2022/02/21 09:17:02;;;;;;;2.00;0.80;;;;;;;8.25;72.72;96463.53;105952;1280;22547;-75
2022/02/21 09:19:30;;;;;;;2.60;1.30;;;;;;;8.28;72.67;96463.57;105801;1280;136730;-75
2022/02/21 09:21:59;;;;;;;4.10;1.80;;;;;;;8.30;72.60;96455.97;106015;1280;24057;-75
2022/02/21 09:24:26;;;;;;;1.80;0.80;;;;;;;8.32;72.50;96453.46;105826;1281;136897;-75
2022/02/21 09:26:54;;;;;;;2.00;1.30;;;;;;;8.31;71.60;96443.70;105741;1281;24432;-75
2022/02/21 09:29:23;;;;;;;2.30;0.90;;;;;;;8.29;71.68;96441.66;105911;1281;22574;-75
2022/02/21 09:31:53;;;;;;;1.60;1.00;;;;;;;8.28;71.74;96444.53;106268;1281;137486;-75
2022/02/21 09:34:20;;;;;;;2.40;1.50;;;;;;;8.29;71.89;96448.64;105864;1283;22584;-75
2022/02/21 09:36:48;;;;;;;1.40;1.30;;;;;;;8.30;71.58;96443.55;105718;1280;137294;-75
2022/02/21 09:39:29;;;;;;;1.60;1.00;;;;;;;8.30;71.32;96442.56;105963;1280;22559;-75
2022/02/21 09:41:56;;;;;;;1.70;1.20;;;;;;;8.32;71.42;96438.60;105947;1280;24257;-75
2022/02/21 09:44:24;;;;;;;1.20;0.80;;;;;;;8.32;71.27;96440.06;105889;1281;136635;-75
2022/02/21 09:46:54;;;;;;;0.80;0.70;;;;;;;8.33;70.90;96448.52;105778;1280;25383;-75
2022/02/21 09:49:21;;;;;;;;;;;;;;;8.34;70.93;96445.05;105844;1280;137056;-75
2022/02/21 09:51:48;;;;;;;1.40;0.70;;;;;;;8.35;70.63;96445.41;106246;1280;23479;-75
2022/02/21 09:54:16;;;;;;;1.70;0.90;;;;;;;8.39;70.64;96451.84;105944;1280;137156;-75
2022/02/21 09:56:43;;;;;;;1.50;0.90;;;;;;;8.43;70.55;96451.63;106553;1281;22589;-75
2022/02/21 09:59:11;;;;;;;2.10;1.20;;;;;;;8.48;70.61;96453.34;106084;1281;22858;-75
2022/02/21 10:01:38;;;;;;;2.20;1.00;;;;;;;8.53;70.25;96454.11;106301;1280;137162;-75
2022/02/21 10:04:11;;;;;;;1.80;1.00;;;;;;;8.59;70.02;96457.84;106022;1280;23923;-75
2022/02/21 10:06:38;;;;;;;2.50;0.80;;;;;;;8.64;69.85;96456.83;106105;1280;136761;-75
2022/02/21 10:09:08;;;;;;;1.50;0.60;;;;;;;8.68;69.52;96449.09;105804;1280;23956;-74
2022/02/21 10:11:47;;;;;;;1.10;0.70;;;;;;;8.73;69.56;96455.23;106691;1280;22493;-75
2022/02/21 10:14:14;;;;;;;;;;;;;;;8.80;69.29;96448.95;106026;1283;137409;-75
2022/02/21 10:16:46;;;;;;;1.10;0.70;;;;;;;8.87;69.48;96440.98;106096;1281;23100;-75
2022/02/21 10:19:40;;;;;;;2.80;1.00;;;;;;;8.95;69.08;96440.96;105862;1280;136926;-75
2022/02/21 10:22:10;;;;;;;1.20;0.70;;;;;;;9.01;68.60;96444.44;106528;1280;24217;-75
2022/02/21 10:24:53;;;;;;;2.20;0.90;;;;;;;9.04;68.54;96445.38;106135;1283;137136;-75
2022/02/21 10:27:28;;;;;;;3.40;1.40;;;;;;;9.07;68.63;96446.34;105996;1280;25368;-74
2022/02/21 10:30:01;;;;;;;2.10;1.10;;;;;;;9.08;68.43;96451.59;105945;1280;25334;-74
2022/02/21 10:32:34;;;;;;;1.30;0.90;;;;;;;9.05;67.93;96453.30;105740;1280;136879;-74
2022/02/21 10:35:16;;;;;;;1.50;0.70;;;;;;;9.01;67.91;96460.14;105988;1280;22551;-74
2022/02/21 10:37:59;;;;;;;1.00;0.60;;;;;;;8.96;68.25;96460.06;105695;1280;136758;-74
2022/02/21 10:40:42;;;;;;;1.30;0.80;;;;;;;8.92;67.41;96468.77;105786;1280;25377;-76
2022/02/21 10:43:32;;;;;;;1.20;0.60;;;;;;;8.88;66.68;96461.98;105629;1280;137480;-74
2022/02/21 10:46:13;;;;;;;1.60;0.90;;;;;;;8.85;66.34;96465.47;105735;1281;24315;-75
2022/02/21 10:48:45;;;;;;;1.40;1.10;;;;;;;8.86;65.74;96464.87;105673;1280;137040;-74
2022/02/21 10:51:12;;;;;;;2.20;1.20;;;;;;;8.87;65.97;96467.29;105683;1280;22701;-74
2022/02/21 10:53:47;;;;;;;1.30;0.80;;;;;;;8.87;65.88;96482.49;105893;1280;22844;-74
2022/02/21 10:56:16;;;;;;;1.20;0.70;;;;;;;8.84;65.62;96487.35;105710;1280;137857;-74
2022/02/21 10:58:44;;;;;;;2.10;0.90;;;;;;;8.78;65.71;96489.72;105750;1280;22583;-75
2022/02/21 11:01:11;;;;;;;4.30;1.40;;;;;;;8.71;65.86;96506.11;105656;1283;137476;-75
2022/02/21 11:03:53;;;;;;;3.70;1.30;;;;;;;8.64;67.12;96547.94;105835;1280;22656;-75
2022/02/21 11:06:21;;;;;;;0.70;0.60;;;;;;;8.53;69.13;96577.17;105768;1280;137403;-74
2022/02/21 11:08:49;;;;;;;2.80;1.10;;;;;;;8.33;69.29;96581.40;105921;1280;24106;-74
2022/02/21 11:11:21;;;;;;;0.60;0.40;;;;;;;8.10;69.31;96582.40;105703;1280;22571;-74
2022/02/21 11:13:50;;;;;;;1.20;0.40;;;;;;;7.86;69.49;96587.05;105715;1280;136968;-75
2022/02/21 11:16:17;;;;;;;2.00;0.40;;;;;;;7.61;69.78;96563.85;105769;1280;22554;-74
2022/02/21 11:18:46;;;;;;;0.90;0.50;;;;;;;7.38;70.01;96556.66;105702;1280;137696;-74
2022/02/21 11:21:14;;;;;;;;;;;;;;;7.19;70.48;96567.92;105861;1280;25359;-76
2022/02/21 11:23:42;;;;;;;0.80;0.50;;;;;;;7.03;70.87;96576.84;105875;1280;22555;-77
2022/02/21 11:26:27;;;;;;;1.00;0.40;;;;;;;6.90;70.89;96582.65;105764;1281;137473;-76
2022/02/21 11:29:17;;;;;;;2.10;0.90;;;;;;;6.79;70.56;96602.77;106178;1280;22570;-77
2022/02/21 11:31:44;;;;;;;1.60;0.50;;;;;;;6.71;70.59;96614.31;105977;1280;137063;-75
2022/02/21 11:34:26;;;;;;;1.30;0.50;;;;;;;6.54;71.78;96622.70;105683;1281;24307;-76
2022/02/21 11:37:37;;;;;;;2.10;0.70;;;;;;;6.33;73.21;96626.28;105730;1280;137632;-75
2022/02/21 11:40:06;;;;;;;1.50;0.80;;;;;;;6.12;74.66;96624.45;105712;1280;25322;-75
2022/02/21 11:42:34;;;;;;;1.40;0.90;;;;;;;5.94;76.11;96637.34;105794;1280;137551;-75
2022/02/21 11:45:04;;;;;;;3.30;1.00;;;;;;;5.76;76.96;96636.94;106112;1280;24377;-74